Chicago Rockford International Airport
KRFD : now visible

Airfield :











YOU CAN JOIN US ON...

 
LOGIN :

Register | Disclaimer

   EN    FR    IT 

 









Legend :    VFR   Marginal VFR   IFR   Intensive IFR   Very Intensive IFR
Visi :
Ceiling :
>= 8 km
>= 3000ft
5 to 8 km
1000 to 3000 ft
1500m to 5 km
500 to 1000 ft
800 to 1500m
200 to 500 ft
< 800m
< 200 ft
Symbols :   Thunderstorms  Fog  Heavy snow  Heavy precipitations  Wind > 20 kt






- Airport Elevation : 742 ft
- IATA code : RFD


KRFD - Chicago Rockford International

CURRENT METAR :
  • 172139Z 12011KT 3/4SM R01/3500V4500FT -SN BR VV016 M04/M07 A3049 RMK AO2 P0002 T10441067

EXPIRED METARs :
  • 172126Z 12009KT 1SM R01/P6000FT -SN OVC024 M04/M08 A3050 RMK AO2 SFC VIS 1 1/2 P0001 T10391078
  • 172110Z 12009KT 3SM -SN OVC025 M03/M08 A3050 RMK AO2 P0001 T10331078
  • 172058Z 14011KT 2SM -SN OVC029 M03/M08 A3052 RMK AO2 P0001 T10331078
  • 172049Z 10009KT 2SM -SN OVC029 M03/M09 A3051 RMK AO2 SNB22 P0000
  • 171954Z 13008G20KT 10SM SCT060 OVC085 M03/M09 A3051 RMK AO2 SLP345 VIRGA T10281089
  • 171854Z 12013KT 10SM OVC110 M03/M09 A3055 RMK AO2 SLP358 T10281089

TAF KRFD
Valid from the 17 at 21:00 until the 18 at 18:00 UTC


172058Z 1721/1818 12010KT 1 1/2SM -SN OVC025
FM172230 13013G20KT 1/2SM SN FG OVC009
TEMPO 1723/1724 1/4SM SN FZFG VV005
FM180100 13015G24KT 1SM -SN OVC008
TEMPO 1802/1804 3/4SM -SN BLSN BR
FM180400 13016G26KT 2SM -SNPL BR OVC009
FM180700 15012G22KT 3SM -FZRAPL BR OVC006
FM181300 21015G25KT 3SM -RASN BR OVC005
FM181600 25018G28KT P6SM -RASN OVC009



MET'MAP, your aeronautical weather chart ! - Copyright ORBIFLY December 2007 - Disclaimer

ORBIFLY MET'MAP TEAM :

Programming & Development : Alexandra Zaïnal
Concept & original design : Baudouin d'Aumeries
Assistance for programming : Marc-Olivier Méhu
Technical & hardware support : Manuel Goepfert

Contact : metmap@orbifly.com




SOURCES & CREDITS :

   NOAA       Earth
Advisory